Time;durP1;ratioP1;P1;durP2;ratioP2;P2;SDS_P1;SDS_P2;PMS_P1;PMS_P2;Temp;Humidity;BMP_temperature;BMP_pressure;BME280_temperature;BME280_humidity;BME280_pressure;Samples;Min_cycle;Max_cycle;Signal;HPM_P1;HPM_P2
2023/01/28 00:01:07;;;;;;;4.55;2.65;;;4.10;99.90;;;;;;4993391;28;20027;-69
2023/01/28 00:03:32;;;;;;;4.88;2.10;;;4.20;99.90;;;;;;4993831;28;20049;-70
2023/01/28 00:06:05;;;;;;;4.43;2.53;;;4.10;99.90;;;;;;4994140;28;20042;-71
2023/01/28 00:08:32;;;;;;;5.28;2.30;;;4.10;99.90;;;;;;4993376;28;20486;-70
2023/01/28 00:10:59;;;;;;;5.03;2.10;;;4.20;99.90;;;;;;4993348;28;20050;-71
2023/01/28 00:13:25;;;;;;;6.07;2.38;;;4.20;99.90;;;;;;4993593;28;20109;-71
2023/01/28 00:15:59;;;;;;;6.20;2.33;;;4.10;99.90;;;;;;4993169;28;20077;-71
2023/01/28 00:18:25;;;;;;;6.00;1.83;;;4.10;99.90;;;;;;4993249;28;20019;-71
2023/01/28 00:20:59;;;;;;;2.97;2.05;;;4.00;99.90;;;;;;4992964;28;20037;-71
2023/01/28 00:23:27;;;;;;;5.20;2.40;;;4.00;99.90;;;;;;4993119;28;20030;-71
2023/01/28 00:25:53;;;;;;;7.05;2.20;;;4.00;99.90;;;;;;4992749;28;20030;-71
2023/01/28 00:28:19;;;;;;;4.03;1.75;;;4.00;99.90;;;;;;4992772;28;20030;-71
2023/01/28 00:30:45;;;;;;;3.67;1.90;;;4.00;99.90;;;;;;5030443;22;20042;-69
2023/01/28 00:33:10;;;;;;;5.22;2.13;;;4.10;99.90;;;;;;5011331;28;20076;-69
2023/01/28 00:35:36;;;;;;;4.35;2.25;;;4.10;99.90;;;;;;5013487;28;20081;-69
2023/01/28 00:38:03;;;;;;;3.17;1.90;;;4.10;99.90;;;;;;5012170;28;20079;-69
2023/01/28 00:40:29;;;;;;;3.95;2.40;;;4.10;99.90;;;;;;5013659;28;20025;-69
2023/01/28 00:42:55;;;;;;;3.30;2.13;;;4.20;99.90;;;;;;5017610;28;20041;-69
2023/01/28 00:45:20;;;;;;;5.38;2.03;;;4.30;99.90;;;;;;5017469;28;20032;-69
2023/01/28 00:47:47;;;;;;;5.65;2.25;;;4.20;99.90;;;;;;5017175;28;20120;-69
2023/01/28 00:50:13;;;;;;;3.65;2.20;;;4.10;99.90;;;;;;5017139;28;20022;-69
2023/01/28 00:52:39;;;;;;;4.10;2.03;;;4.10;99.90;;;;;;5015775;28;20052;-69
2023/01/28 00:55:05;;;;;;;3.70;2.00;;;4.20;99.90;;;;;;5016218;28;20030;-69
2023/01/28 00:57:30;;;;;;;4.53;2.03;;;4.10;99.90;;;;;;5015686;28;20025;-69
2023/01/28 00:59:56;;;;;;;3.38;1.90;;;4.20;99.90;;;;;;5015775;28;20018;-69
2023/01/28 01:02:22;;;;;;;4.82;1.92;;;4.20;99.90;;;;;;5016959;28;20088;-68
2023/01/28 01:04:59;;;;;;;6.18;1.70;;;4.30;99.90;;;;;;5016381;28;20072;-69
2023/01/28 01:07:40;;;;;;;3.95;1.90;;;4.20;99.90;;;;;;5017146;28;20185;-69
2023/01/28 01:10:10;;;;;;;3.20;2.05;;;4.30;99.90;;;;;;5015501;28;20030;-69
2023/01/28 01:12:36;;;;;;;5.93;2.33;;;4.40;99.90;;;;;;5015687;28;20030;-69
2023/01/28 01:15:03;;;;;;;7.63;1.80;;;4.20;99.90;;;;;;5015522;28;20026;-69
2023/01/28 01:17:31;;;;;;;6.13;2.30;;;4.30;99.90;;;;;;5016607;28;20018;-69
2023/01/28 01:19:56;;;;;;;3.65;1.80;;;4.30;99.90;;;;;;5016685;28;20022;-69
2023/01/28 01:22:22;;;;;;;5.97;2.30;;;4.30;99.90;;;;;;5015375;28;20068;-69
2023/01/28 01:24:47;;;;;;;6.25;2.40;;;4.30;99.90;;;;;;5016444;28;20130;-69
2023/01/28 01:27:13;;;;;;;5.13;2.10;;;4.20;99.90;;;;;;5015482;28;20022;-69
2023/01/28 01:29:39;;;;;;;4.70;2.10;;;4.20;99.90;;;;;;5015120;28;20030;-69
2023/01/28 01:32:04;;;;;;;3.50;2.28;;;4.30;99.90;;;;;;5016281;28;20022;-69
2023/01/28 01:34:30;;;;;;;4.32;2.03;;;4.20;99.90;;;;;;5015069;28;20021;-69
2023/01/28 01:36:55;;;;;;;3.15;1.63;;;4.20;99.90;;;;;;5016239;28;20113;-70
2023/01/28 01:39:21;;;;;;;3.55;1.90;;;4.10;99.90;;;;;;5015072;28;20044;-69
2023/01/28 01:41:46;;;;;;;3.83;1.95;;;4.00;99.90;;;;;;5015781;28;20030;-69
2023/01/28 01:44:56;;;;;;;2.72;2.08;;;4.00;99.90;;;;;;5014890;28;20026;-69
2023/01/28 01:47:28;;;;;;;3.50;1.50;;;4.10;99.90;;;;;;4992656;28;20414;-69
2023/01/28 01:49:55;;;;;;;4.28;1.90;;;4.00;99.90;;;;;;5014765;28;20485;-69
2023/01/28 01:52:27;;;;;;;2.53;1.70;;;4.00;99.90;;;;;;5013729;28;20029;-69
2023/01/28 01:54:56;;;;;;;3.72;1.77;;;4.10;99.90;;;;;;5014799;28;20018;-69
2023/01/28 01:57:26;;;;;;;3.97;1.83;;;4.10;99.90;;;;;;5015934;28;20389;-69
2023/01/28 01:59:53;;;;;;;4.15;1.90;;;4.10;99.90;;;;;;5014597;28;20117;-69
2023/01/28 02:02:18;;;;;;;2.33;1.70;;;4.10;99.90;;;;;;5014610;28;20026;-69
2023/01/28 02:04:44;;;;;;;5.45;2.15;;;3.90;99.90;;;;;;5016056;28;20029;-68
2023/01/28 02:07:13;;;;;;;5.43;1.95;;;3.90;99.90;;;;;;5015618;28;20109;-69
2023/01/28 02:09:48;;;;;;;1.80;1.50;;;3.90;99.90;;;;;;5014570;28;20030;-69
2023/01/28 02:12:19;;;;;;;4.93;2.17;;;3.80;99.90;;;;;;5014708;28;20121;-69
2023/01/28 02:14:48;;;;;;;4.03;1.95;;;3.80;99.90;;;;;;5014444;28;20029;-69
2023/01/28 02:17:15;;;;;;;2.42;1.45;;;3.70;99.90;;;;;;5015767;28;20066;-69
2023/01/28 02:19:57;;;;;;;4.20;1.98;;;3.80;99.90;;;;;;5014377;28;20477;-69
2023/01/28 02:22:40;;;;;;;6.97;2.13;;;3.70;99.90;;;;;;5015509;28;20025;-69
2023/01/28 02:25:38;;;;;;;4.05;2.17;;;3.80;99.90;;;;;;5015040;28;20053;-69
2023/01/28 02:28:13;;;;;;;7.65;2.47;;;3.60;99.90;;;;;;5014381;28;20096;-69
2023/01/28 02:30:47;;;;;;;5.72;2.25;;;3.60;99.90;;;;;;5013898;28;20026;-69
2023/01/28 02:33:22;;;;;;;5.13;2.00;;;3.60;99.90;;;;;;5013990;28;20048;-70
2023/01/28 02:35:52;;;;;;;5.28;2.78;;;3.50;99.90;;;;;;5014081;28;20460;-70
2023/01/28 02:38:27;;;;;;;4.78;2.63;;;3.50;99.90;;;;;;5014022;28;20022;-70
2023/01/28 02:41:08;;;;;;;5.22;3.05;;;3.60;99.90;;;;;;5014894;28;20028;-70
2023/01/28 02:43:41;;;;;;;5.35;2.65;;;3.50;99.90;;;;;;5014185;28;20030;-70
2023/01/28 02:48:57;;;;;;;6.05;3.25;;;3.50;99.90;;;;;;5015115;28;20041;-70
2023/01/28 02:51:34;;;;;;;6.93;3.28;;;3.40;99.90;;;;;;5014790;28;20025;-70
2023/01/28 02:54:10;;;;;;;6.68;2.80;;;3.30;99.90;;;;;;5013624;28;20036;-70
2023/01/28 02:56:47;;;;;;;5.20;2.75;;;3.30;99.90;;;;;;5013552;28;20025;-70
2023/01/28 02:59:29;;;;;;;5.22;3.03;;;3.40;99.90;;;;;;5015051;28;20026;-69
2023/01/28 03:02:15;;;;;;;6.15;2.53;;;3.30;99.90;;;;;;5014967;28;20029;-69
2023/01/28 03:04:54;;;;;;;8.93;2.88;;;3.30;99.90;;;;;;4984580;28;20034;-69
2023/01/28 03:07:22;;;;;;;3.45;2.50;;;3.30;99.90;;;;;;5013402;28;20125;-69
2023/01/28 03:09:50;;;;;;;5.80;2.40;;;3.40;99.90;;;;;;5013261;28;20032;-69
2023/01/28 03:38:22;;;;;;;4.68;2.40;;;3.50;99.90;;;;;;5014721;28;20037;-70
2023/01/28 03:40:54;;;;;;;2.75;1.75;;;3.30;99.90;;;;;;5014401;28;20026;-70
2023/01/28 03:43:19;;;;;;;;;;;3.40;99.90;;;;;;5013228;28;20026;-70
2023/01/28 03:45:45;;;;;;;4.85;1.85;;;3.60;99.90;;;;;;5017845;28;19996;-69
2023/01/28 03:48:12;;;;;;;5.28;1.92;;;3.60;99.90;;;;;;5013880;28;20080;-69
2023/01/28 03:50:38;;;;;;;4.50;2.22;;;3.60;99.90;;;;;;5013753;28;20022;-69
2023/01/28 03:53:13;;;;;;;3.33;1.80;;;3.60;99.90;;;;;;5014093;28;20030;-69
2023/01/28 03:55:38;;;;;;;4.63;1.95;;;3.70;99.90;;;;;;5013429;28;20022;-69
2023/01/28 03:58:07;;;;;;;4.22;2.00;;;3.60;99.90;;;;;;5014202;28;20072;-69
2023/01/28 04:00:36;;;;;;;3.50;1.83;;;3.60;99.90;;;;;;5013856;28;20061;-69
2023/01/28 04:03:14;;;;;;;5.25;2.17;;;3.70;99.90;;;;;;5012905;28;20025;-69
2023/01/28 04:05:44;;;;;;;3.20;1.90;;;3.80;99.90;;;;;;5013803;28;20021;-69
2023/01/28 04:08:10;;;;;;;3.75;2.50;;;3.80;99.90;;;;;;5013646;28;20095;-69
2023/01/28 04:10:37;;;;;;;6.10;1.90;;;3.90;99.90;;;;;;5013524;28;20025;-69
2023/01/28 04:13:03;;;;;;;3.90;1.65;;;3.90;99.90;;;;;;5013520;28;20026;-69
2023/01/28 04:15:29;;;;;;;3.55;2.20;;;3.80;99.90;;;;;;5012139;28;20072;-70
2023/01/28 04:17:55;;;;;;;4.80;2.72;;;3.90;99.90;;;;;;5012322;28;20536;-70
2023/01/28 04:20:21;;;;;;;3.75;2.38;;;3.80;99.90;;;;;;5012430;28;20050;-70
2023/01/28 04:22:47;;;;;;;5.72;2.50;;;3.80;99.90;;;;;;5012363;28;20064;-70
2023/01/28 04:25:12;;;;;;;4.03;2.22;;;3.90;99.90;;;;;;5013220;28;20030;-70
2023/01/28 04:27:38;;;;;;;6.18;2.20;;;3.90;99.90;;;;;;5012712;28;20033;-70
2023/01/28 04:30:04;;;;;;;2.95;1.77;;;3.80;99.90;;;;;;5012258;28;20033;-70
2023/01/28 04:32:29;;;;;;;2.85;2.00;;;3.80;99.90;;;;;;5012089;28;20053;-70
2023/01/28 04:34:55;;;;;;;3.70;2.15;;;3.80;99.90;;;;;;5012326;28;20087;-70
2023/01/28 04:37:20;;;;;;;3.47;2.25;;;3.80;99.90;;;;;;5013415;28;20025;-69
2023/01/28 04:39:46;;;;;;;6.07;2.05;;;3.70;99.90;;;;;;5012912;28;20101;-69
2023/01/28 04:42:11;;;;;;;8.43;1.85;;;3.80;99.90;;;;;;5012273;28;20112;-69
2023/01/28 04:44:37;;;;;;;5.45;2.33;;;3.80;99.90;;;;;;5012202;28;20022;-69
2023/01/28 04:47:02;;;;;;;4.97;1.90;;;3.80;99.90;;;;;;5012363;28;20028;-69
2023/01/28 04:49:28;;;;;;;3.70;1.80;;;3.80;99.90;;;;;;5012309;28;20036;-69
2023/01/28 04:51:53;;;;;;;4.63;1.92;;;3.80;99.90;;;;;;5012128;28;20026;-69
2023/01/28 04:54:19;;;;;;;3.70;1.77;;;3.90;99.90;;;;;;5012348;28;20022;-69
2023/01/28 04:56:44;;;;;;;5.10;2.10;;;4.00;99.90;;;;;;5012154;28;20062;-70
2023/01/28 04:59:10;;;;;;;4.15;1.95;;;3.80;99.90;;;;;;5012764;28;20032;-70
2023/01/28 05:01:35;;;;;;;2.83;2.10;;;3.90;99.90;;;;;;5012024;28;20097;-70
2023/01/28 05:04:04;;;;;;;2.13;1.90;;;3.80;99.90;;;;;;5011881;28;20026;-70
2023/01/28 05:06:30;;;;;;;3.50;2.17;;;3.80;99.90;;;;;;5011843;28;20030;-70
2023/01/28 05:09:03;;;;;;;6.60;2.40;;;3.90;99.90;;;;;;5011887;28;20026;-69
2023/01/28 05:11:28;;;;;;;4.00;2.38;;;4.00;99.90;;;;;;5011927;28;20032;-69
2023/01/28 05:13:54;;;;;;;4.95;1.63;;;3.70;99.90;;;;;;5013026;28;20030;-69
2023/01/28 05:16:19;;;;;;;3.55;2.10;;;3.70;99.90;;;;;;5011819;28;20018;-69
2023/01/28 05:18:46;;;;;;;4.20;1.73;;;3.60;99.90;;;;;;5011853;28;20022;-69
2023/01/28 05:21:13;;;;;;;4.20;1.73;;;3.70;99.90;;;;;;5012095;28;20088;-69
2023/01/28 05:23:38;;;;;;;3.17;1.75;;;3.70;99.90;;;;;;5011772;28;20025;-69
2023/01/28 05:26:04;;;;;;;2.45;1.73;;;3.30;99.90;;;;;;5011791;28;20033;-69
2023/01/28 05:28:30;;;;;;;2.58;1.70;;;3.20;99.90;;;;;;5014747;28;20022;-69
2023/01/28 05:30:56;;;;;;;2.35;1.50;;;3.30;99.90;;;;;;5015760;28;20042;-69
2023/01/28 05:33:21;;;;;;;3.13;1.70;;;3.50;99.90;;;;;;5016337;28;20076;-70
2023/01/28 05:35:48;;;;;;;2.60;1.70;;;3.60;99.90;;;;;;5015295;28;20076;-70
2023/01/28 05:38:13;;;;;;;2.88;1.75;;;3.50;99.90;;;;;;5015048;28;20088;-70
2023/01/28 05:40:39;;;;;;;6.63;1.83;;;3.60;99.90;;;;;;5014894;28;20022;-70
2023/01/28 05:43:04;;;;;;;2.65;2.15;;;3.70;99.90;;;;;;5015280;28;20045;-70
2023/01/28 05:45:30;;;;;;;2.17;1.40;;;3.80;99.90;;;;;;5015215;28;20026;-69
2023/01/28 05:47:55;;;;;;;3.55;1.52;;;3.80;99.90;;;;;;5015193;28;20034;-69
2023/01/28 05:50:21;;;;;;;6.72;1.60;;;3.70;99.90;;;;;;5015975;28;20033;-69
2023/01/28 05:52:46;;;;;;;5.47;2.05;;;3.70;99.90;;;;;;5015578;28;20117;-70
2023/01/28 05:55:12;;;;;;;2.95;1.73;;;3.50;99.90;;;;;;5014738;28;20033;-70
2023/01/28 05:57:38;;;;;;;1.77;1.48;;;3.50;99.90;;;;;;5015047;28;20029;-70
2023/01/28 06:00:04;;;;;;;2.25;1.52;;;3.40;99.90;;;;;;5015945;28;20022;-70
2023/01/28 06:02:30;;;;;;;2.35;1.52;;;3.40;99.90;;;;;;5014579;28;20033;-70
2023/01/28 06:04:55;;;;;;;3.22;1.67;;;3.40;99.90;;;;;;5015854;28;20026;-70
2023/01/28 06:07:22;;;;;;;2.30;1.50;;;3.50;99.90;;;;;;5014592;28;20021;-70
2023/01/28 06:09:48;;;;;;;3.88;2.13;;;3.60;99.90;;;;;;5014452;28;20052;-70
2023/01/28 06:12:14;;;;;;;4.18;1.80;;;3.50;99.90;;;;;;5014469;28;20034;-69
2023/01/28 06:14:40;;;;;;;3.08;1.73;;;3.50;99.90;;;;;;5015971;28;20014;-69
2023/01/28 06:17:06;;;;;;;2.85;1.45;;;3.60;99.90;;;;;;5014370;28;20026;-69
2023/01/28 06:19:31;;;;;;;3.28;1.70;;;3.50;99.90;;;;;;5014268;28;20053;-69
2023/01/28 06:21:57;;;;;;;2.85;1.55;;;3.60;99.90;;;;;;5015567;28;20022;-69
2023/01/28 06:24:23;;;;;;;2.72;1.80;;;3.50;99.90;;;;;;5014196;28;20381;-69
2023/01/28 06:26:48;;;;;;;3.63;1.85;;;3.60;99.90;;;;;;5014431;28;20055;-69
2023/01/28 06:29:14;;;;;;;4.00;1.80;;;3.50;99.90;;;;;;5014482;28;20030;-69
2023/01/28 06:31:40;;;;;;;4.25;1.70;;;3.40;99.90;;;;;;5015419;28;20137;-69
2023/01/28 06:34:05;;;;;;;4.38;2.17;;;3.50;99.90;;;;;;5013924;28;20085;-69
2023/01/28 06:36:31;;;;;;;4.30;1.98;;;3.40;99.90;;;;;;5013947;28;20025;-69
2023/01/28 06:38:57;;;;;;;3.28;1.70;;;3.40;99.90;;;;;;5013462;28;20022;-69
2023/01/28 06:41:23;;;;;;;3.10;1.58;;;3.50;99.90;;;;;;5015357;28;20018;-69
2023/01/28 06:43:48;;;;;;;4.55;2.10;;;3.50;99.90;;;;;;5013870;28;20025;-69
2023/01/28 06:46:14;;;;;;;4.78;1.90;;;3.30;99.90;;;;;;5014448;28;20018;-69
2023/01/28 06:48:39;;;;;;;4.20;1.92;;;3.30;99.90;;;;;;5014148;28;20072;-69
2023/01/28 06:51:05;;;;;;;3.85;2.55;;;3.40;99.90;;;;;;5013920;28;20029;-69
2023/01/28 06:53:30;;;;;;;2.88;1.70;;;3.40;99.90;;;;;;5014884;28;20048;-69
2023/01/28 06:55:56;;;;;;;3.42;1.88;;;3.50;99.90;;;;;;5014974;28;20036;-69
2023/01/28 06:58:22;;;;;;;3.30;1.75;;;3.50;99.90;;;;;;5014865;28;20030;-70
2023/01/28 07:00:47;;;;;;;2.90;1.60;;;3.50;99.90;;;;;;5014714;28;20022;-70
2023/01/28 07:03:13;;;;;;;1.98;1.75;;;3.40;99.90;;;;;;5013505;28;20033;-70
2023/01/28 07:05:38;;;;;;;4.68;1.80;;;3.30;99.90;;;;;;5014808;28;20084;-69
2023/01/28 07:08:04;;;;;;;3.65;2.00;;;3.20;99.90;;;;;;5013196;28;20030;-69
2023/01/28 07:10:30;;;;;;;2.08;1.25;;;3.40;99.90;;;;;;5014350;28;20026;-69
2023/01/28 07:12:55;;;;;;;2.90;1.83;;;3.20;99.90;;;;;;5012983;28;20065;-69
2023/01/28 07:15:21;;;;;;;5.45;2.00;;;3.30;99.90;;;;;;5013026;28;20083;-69
2023/01/28 07:17:46;;;;;;;2.70;1.33;;;3.20;99.90;;;;;;5014204;28;20076;-69
2023/01/28 07:20:14;;;;;;;2.88;1.50;;;3.30;99.90;;;;;;5013609;28;20025;-69
2023/01/28 07:22:40;;;;;;;4.07;1.23;;;3.20;99.90;;;;;;5014094;28;20022;-69
2023/01/28 07:25:07;;;;;;;3.33;1.35;;;3.20;99.90;;;;;;5013120;28;20060;-69
2023/01/28 07:27:32;;;;;;;3.28;1.50;;;3.30;99.90;;;;;;5013375;28;20025;-69
2023/01/28 07:29:58;;;;;;;3.90;1.55;;;3.10;99.90;;;;;;5012569;28;20034;-69
2023/01/28 07:32:26;;;;;;;4.10;1.45;;;3.10;99.90;;;;;;5012667;28;20029;-69
2023/01/28 07:34:52;;;;;;;5.45;1.13;;;3.10;99.90;;;;;;5014219;28;20014;-69
2023/01/28 07:37:17;;;;;;;1.83;1.10;;;3.10;99.90;;;;;;5014218;28;20021;-69
2023/01/28 07:39:43;;;;;;;3.55;1.50;;;3.30;99.90;;;;;;5012508;28;20041;-69
2023/01/28 07:42:09;;;;;;;2.42;1.38;;;3.40;99.90;;;;;;5013850;28;20026;-69
2023/01/28 07:44:35;;;;;;;2.72;1.50;;;3.40;99.90;;;;;;5013802;28;20051;-69
2023/01/28 07:47:01;;;;;;;5.22;1.60;;;3.50;99.90;;;;;;5012498;28;20029;-69
2023/01/28 07:49:27;;;;;;;3.10;1.10;;;3.50;99.90;;;;;;5012352;28;20022;-69
2023/01/28 07:51:53;;;;;;;6.82;1.80;;;3.60;99.90;;;;;;5013053;28;20053;-69
2023/01/28 07:54:18;;;;;;;5.57;1.73;;;3.40;99.90;;;;;;5012208;28;20026;-69
2023/01/28 07:56:43;;;;;;;8.43;1.55;;;3.40;99.90;;;;;;5013683;28;20026;-69
2023/01/28 07:59:09;;;;;;;2.85;1.77;;;3.50;99.90;;;;;;5013550;28;20029;-69
2023/01/28 08:01:34;;;;;;;4.07;1.33;;;3.50;99.90;;;;;;5012444;28;20018;-69
2023/01/28 08:04:00;;;;;;;4.93;2.08;;;3.50;99.90;;;;;;5012580;28;20021;-69
2023/01/28 08:06:27;;;;;;;2.97;1.40;;;3.40;99.90;;;;;;5012465;28;20166;-69
2023/01/28 08:08:53;;;;;;;2.83;1.33;;;3.30;99.90;;;;;;5013521;28;20026;-69
2023/01/28 08:11:19;;;;;;;2.85;1.10;;;3.30;99.90;;;;;;5012593;28;20396;-69
2023/01/28 08:13:45;;;;;;;1.45;0.88;;;3.30;99.90;;;;;;5012402;28;20030;-69
2023/01/28 08:16:10;;;;;;;2.88;1.40;;;3.10;99.90;;;;;;5013410;28;20028;-69
2023/01/28 08:18:36;;;;;;;5.07;1.63;;;3.30;99.90;;;;;;5013360;28;20021;-69
2023/01/28 08:21:03;;;;;;;2.53;1.00;;;3.10;99.90;;;;;;5012299;28;20116;-69
2023/01/28 08:23:33;;;;;;;1.63;1.00;;;3.30;99.90;;;;;;5013331;28;20037;-69
2023/01/28 08:25:58;;;;;;;1.42;0.90;;;3.50;99.90;;;;;;5012374;28;20088;-69
2023/01/28 08:28:24;;;;;;;1.48;1.20;;;3.60;99.90;;;;;;5012063;28;20030;-69
2023/01/28 08:30:49;;;;;;;3.67;0.85;;;3.60;99.90;;;;;;5012339;28;20044;-69
2023/01/28 08:33:17;;;;;;;1.52;1.00;;;3.50;99.90;;;;;;5012226;28;20065;-69
2023/01/28 08:35:42;;;;;;;1.17;1.02;;;3.60;99.90;;;;;;5012772;28;20025;-69
2023/01/28 08:38:11;;;;;;;1.55;0.93;;;3.70;99.90;;;;;;5013560;28;20022;-69
2023/01/28 08:40:36;;;;;;;2.50;0.93;;;3.70;99.90;;;;;;5011874;28;20034;-69
2023/01/28 08:43:03;;;;;;;3.78;0.90;;;3.80;99.90;;;;;;5013453;28;20094;-69
2023/01/28 08:45:29;;;;;;;2.63;0.73;;;3.80;99.90;;;;;;5013221;28;20034;-69
2023/01/28 08:48:03;;;;;;;0.88;0.70;;;3.90;99.90;;;;;;5011939;28;20030;-70
2023/01/28 08:50:31;;;;;;;0.88;0.70;;;3.90;99.90;;;;;;5011822;28;20120;-70
2023/01/28 08:53:06;;;;;;;1.20;0.85;;;3.80;99.90;;;;;;5012904;28;20169;-70
2023/01/28 08:55:33;;;;;;;2.10;0.70;;;3.80;99.90;;;;;;5011785;28;20164;-70
2023/01/28 08:58:02;;;;;;;2.65;0.70;;;3.80;99.90;;;;;;5013099;28;20033;-70
2023/01/28 09:00:27;;;;;;;0.88;0.50;;;3.90;99.90;;;;;;5012991;28;20033;-69
2023/01/28 09:02:53;;;;;;;2.80;0.80;;;3.90;99.90;;;;;;5014272;28;20030;-70
2023/01/28 09:05:20;;;;;;;0.93;0.40;;;3.80;99.90;;;;;;5017075;28;20496;-70
2023/01/28 09:07:45;;;;;;;1.15;0.77;;;3.90;99.90;;;;;;5016928;28;20026;-70
2023/01/28 09:10:11;;;;;;;0.93;0.57;;;3.70;99.90;;;;;;5016543;28;20029;-70
2023/01/28 09:12:37;;;;;;;2.83;0.82;;;3.70;99.90;;;;;;5016074;28;20029;-70
2023/01/28 09:15:03;;;;;;;3.50;0.75;;;3.70;99.90;;;;;;5015420;28;20054;-70
2023/01/28 09:17:29;;;;;;;5.72;0.70;;;3.70;99.90;;;;;;5015336;28;20026;-69
2023/01/28 09:19:54;;;;;;;2.72;1.95;;;3.50;99.90;;;;;;5016409;28;20026;-69
2023/01/28 09:22:20;;;;;;;1.58;0.52;;;3.60;99.90;;;;;;5016287;28;20401;-69
2023/01/28 09:24:46;;;;;;;2.85;0.65;;;3.60;99.90;;;;;;5015367;28;20145;-70
2023/01/28 09:27:11;;;;;;;1.02;0.73;;;3.60;99.90;;;;;;5015132;28;20109;-70
2023/01/28 09:29:37;;;;;;;0.82;0.60;;;3.60;99.90;;;;;;5015113;28;20049;-70
2023/01/28 09:32:04;;;;;;;1.05;0.70;;;3.60;99.90;;;;;;5015004;28;20076;-70
2023/01/28 09:34:29;;;;;;;1.55;0.82;;;3.60;99.90;;;;;;5014925;28;20489;-69
2023/01/28 09:36:55;;;;;;;1.50;0.70;;;3.60;99.90;;;;;;5016305;28;20036;-69
2023/01/28 09:39:21;;;;;;;0.60;0.60;;;3.50;99.90;;;;;;5015966;28;20022;-69
2023/01/28 09:42:22;;;;;;;1.77;0.90;;;3.60;99.90;;;;;;5016504;28;20112;-69
2023/01/28 09:44:57;;;;;;;1.23;0.80;;;3.70;99.90;;;;;;5014808;28;20124;-70
2023/01/28 09:47:39;;;;;;;0.82;0.60;;;3.80;99.90;;;;;;5016076;28;20115;-69
2023/01/28 09:50:25;;;;;;;1.13;0.90;;;3.70;99.90;;;;;;5015864;28;20026;-70
2023/01/28 09:52:54;;;;;;;1.23;1.10;;;3.70;99.90;;;;;;5015779;28;20057;-69
2023/01/28 09:55:34;;;;;;;0.75;0.47;;;3.80;99.90;;;;;;5014449;28;20149;-70
2023/01/28 09:58:00;;;;;;;1.77;0.77;;;3.60;99.90;;;;;;5016022;28;20034;-70
2023/01/28 10:00:37;;;;;;;1.73;1.00;;;3.50;99.90;;;;;;5015723;28;20500;-70
2023/01/28 10:03:27;;;;;;;3.20;1.05;;;3.60;99.90;;;;;;5014997;28;20026;-69
2023/01/28 10:06:13;;;;;;;2.03;0.98;;;3.50;99.90;;;;;;5014467;28;20022;-68
2023/01/28 10:09:22;;;;;;;2.10;0.90;;;3.60;99.90;;;;;;5015869;28;20030;-69
2023/01/28 10:12:15;;;;;;;1.02;0.85;;;3.60;99.90;;;;;;5010267;28;20096;-69
2023/01/28 10:15:08;;;;;;;2.28;0.90;;;3.80;99.90;;;;;;5013743;28;20034;-69
2023/01/28 10:17:40;;;;;;;1.80;1.08;;;3.50;99.90;;;;;;5015470;28;20022;-70
2023/01/28 10:20:14;;;;;;;0.93;0.75;;;3.40;99.90;;;;;;5014768;28;20022;-69
2023/01/28 10:22:56;;;;;;;3.22;0.90;;;3.40;99.90;;;;;;5013943;28;20026;-69
2023/01/28 10:25:27;;;;;;;1.98;0.85;;;3.30;99.90;;;;;;5014887;28;20022;-69
2023/01/28 10:27:52;;;;;;;2.72;1.25;;;3.10;99.90;;;;;;5015367;28;20033;-69
2023/01/28 10:30:19;;;;;;;2.38;0.70;;;3.00;99.90;;;;;;5014931;28;20021;-68
2023/01/28 10:33:26;;;;;;;1.35;1.02;;;2.90;99.90;;;;;;5015279;28;20021;-69
2023/01/28 10:35:53;;;;;;;1.95;0.98;;;2.90;99.90;;;;;;5015119;28;20022;-70
2023/01/28 10:38:24;;;;;;;1.75;0.88;;;2.90;99.90;;;;;;5015423;28;20099;-70
2023/01/28 10:40:50;;;;;;;2.03;1.13;;;2.90;99.90;;;;;;5014448;28;20022;-70
2023/01/28 10:43:19;;;;;;;0.68;0.60;;;2.90;99.90;;;;;;5015123;28;20112;-69
2023/01/28 10:46:06;;;;;;;1.15;0.70;;;2.90;99.90;;;;;;5015461;28;20022;-69
2023/01/28 10:48:36;;;;;;;2.53;1.20;;;3.10;99.90;;;;;;5015210;28;20022;-69
2023/01/28 10:51:05;;;;;;;2.08;1.30;;;3.20;99.90;;;;;;5014233;28;20033;-69
2023/01/28 10:53:42;;;;;;;1.17;1.00;;;3.30;99.90;;;;;;5014443;28;20087;-69
2023/01/28 10:56:23;;;;;;;1.73;1.00;;;3.20;99.90;;;;;;5013489;28;20084;-69
2023/01/28 10:59:02;;;;;;;3.30;1.10;;;3.30;99.90;;;;;;5015030;28;20029;-69
2023/01/28 11:01:39;;;;;;;2.92;1.02;;;3.20;99.90;;;;;;5014568;28;20033;-70
2023/01/28 11:04:05;;;;;;;1.98;1.13;;;3.40;99.90;;;;;;5014818;28;20105;-70
2023/01/28 11:06:30;;;;;;;3.47;1.33;;;3.60;99.90;;;;;;5014577;28;20017;-69
2023/01/28 11:08:56;;;;;;;0.80;0.70;;;3.60;99.90;;;;;;5013511;28;20109;-69
2023/01/28 11:11:26;;;;;;;2.60;1.40;;;3.50;99.90;;;;;;5013251;28;20026;-69
2023/01/28 11:13:54;;;;;;;1.23;1.02;;;3.30;99.90;;;;;;5013154;28;20025;-69
2023/01/28 11:16:20;;;;;;;2.58;0.98;;;3.30;99.90;;;;;;5014773;28;20014;-69
2023/01/28 11:18:53;;;;;;;3.13;1.25;;;3.60;99.90;;;;;;5013266;28;20022;-68
2023/01/28 11:21:21;;;;;;;3.20;1.30;;;3.60;99.90;;;;;;5013375;28;20053;-69
2023/01/28 11:24:00;;;;;;;2.15;1.02;;;3.70;99.90;;;;;;5013918;28;20168;-69
2023/01/28 11:26:31;;;;;;;2.10;0.82;;;3.70;99.90;;;;;;5012791;28;20037;-68
2023/01/28 11:28:57;;;;;;;2.33;1.30;;;3.80;99.90;;;;;;5013014;28;20029;-68
2023/01/28 11:31:24;;;;;;;1.65;0.90;;;3.70;99.90;;;;;;5013033;28;20041;-69
2023/01/28 11:33:58;;;;;;;1.67;1.15;;;3.70;99.90;;;;;;5012896;28;20057;-68
2023/01/28 11:36:31;;;;;;;3.25;0.80;;;3.80;99.90;;;;;;5013855;28;20115;-68
2023/01/28 11:39:04;;;;;;;1.10;0.90;;;3.80;99.90;;;;;;5013486;28;20057;-68
2023/01/28 11:41:37;;;;;;;1.83;0.90;;;3.90;99.90;;;;;;5013861;28;20105;-68
2023/01/28 11:44:24;;;;;;;3.67;1.15;;;3.90;99.90;;;;;;5013841;28;20026;-68
2023/01/28 11:47:08;;;;;;;1.83;0.80;;;4.00;99.90;;;;;;5012490;28;20022;-68
2023/01/28 11:49:58;;;;;;;2.30;1.17;;;4.00;99.90;;;;;;5013673;28;20026;-68
2023/01/28 11:52:51;;;;;;;2.60;1.30;;;4.00;99.90;;;;;;5013691;28;20022;-68
2023/01/28 11:55:55;;;;;;;5.68;0.85;;;3.90;99.90;;;;;;5013884;28;20052;-68
2023/01/28 11:58:50;;;;;;;3.92;1.00;;;3.80;99.90;;;;;;5012300;28;20168;-68
2023/01/28 12:01:42;;;;;;;4.47;1.00;;;3.80;99.90;;;;;;5012290;28;20026;-69
2023/01/28 12:04:39;;;;;;;1.05;0.63;;;3.90;99.90;;;;;;5012301;28;20117;-68
2023/01/28 12:07:13;;;;;;;1.30;1.00;;;3.90;99.90;;;;;;5012165;28;20022;-68
2023/01/28 12:10:15;;;;;;;1.02;0.70;;;4.00;99.90;;;;;;5013435;28;20030;-68
2023/01/28 12:13:12;;;;;;;1.58;0.93;;;4.00;99.90;;;;;;4936945;29;20035;-68
2023/01/28 12:16:08;;;;;;;7.00;1.30;;;4.00;99.90;;;;;;4952957;28;20376;-68
2023/01/28 12:19:09;;;;;;;1.40;1.15;;;4.00;99.90;;;;;;4936929;29;20023;-68
2023/01/28 12:22:11;;;;;;;4.30;1.27;;;4.00;99.90;;;;;;4949148;28;20043;-68
2023/01/28 12:24:43;;;;;;;1.67;1.10;;;4.00;99.90;;;;;;4953662;28;20083;-69
2023/01/28 12:27:14;;;;;;;1.27;0.85;;;4.00;99.90;;;;;;4953137;28;20066;-69
2023/01/28 12:30:10;;;;;;;1.35;0.90;;;3.90;99.90;;;;;;4953273;28;20114;-69
2023/01/28 12:32:46;;;;;;;2.72;1.02;;;4.00;99.90;;;;;;4952847;29;20035;-69
2023/01/28 12:35:50;;;;;;;4.45;1.10;;;4.10;99.90;;;;;;4953355;29;20062;-70
2023/01/28 12:38:26;;;;;;;2.50;1.00;;;3.90;99.90;;;;;;4864996;29;20033;-70
2023/01/28 12:40:52;;;;;;;3.60;1.15;;;3.90;99.90;;;;;;4865394;29;20101;-70
2023/01/28 12:43:45;;;;;;;6.88;0.95;;;3.90;99.90;;;;;;4881182;29;20044;-70
2023/01/28 12:46:16;;;;;;;1.92;0.98;;;3.70;99.90;;;;;;4865247;29;20493;-69
2023/01/28 12:49:06;;;;;;;6.00;1.33;;;3.50;99.90;;;;;;4919756;29;20036;-69
2023/01/28 12:51:54;;;;;;;1.63;1.00;;;3.70;99.90;;;;;;4937383;29;20042;-69
2023/01/28 12:54:33;;;;;;;0.77;0.63;;;3.80;99.90;;;;;;4937221;29;20519;-68
2023/01/28 12:56:59;;;;;;;3.78;0.70;;;3.60;99.90;;;;;;4937327;29;20031;-68
2023/01/28 12:59:31;;;;;;;2.92;0.98;;;3.50;99.90;;;;;;4937107;29;20075;-68
2023/01/28 13:02:17;;;;;;;4.50;1.10;;;3.60;99.90;;;;;;4921499;29;20167;-68
2023/01/28 13:05:01;;;;;;;1.05;0.65;;;3.70;99.90;;;;;;4921772;29;20131;-68
2023/01/28 13:07:38;;;;;;;2.33;0.93;;;3.90;99.90;;;;;;4937257;29;20553;-68
2023/01/28 13:10:14;;;;;;;3.00;0.98;;;4.00;99.90;;;;;;4937646;29;20027;-68
2023/01/28 13:12:40;;;;;;;2.05;1.02;;;4.00;99.90;;;;;;4937206;29;20032;-68
2023/01/28 13:15:12;;;;;;;4.10;1.00;;;4.00;99.90;;;;;;4997394;28;20513;-69
2023/01/28 13:17:37;;;;;;;1.80;1.10;;;4.10;99.90;;;;;;5016774;28;20033;-69
2023/01/28 13:20:14;;;;;;;3.13;1.20;;;4.10;99.90;;;;;;5015597;28;20034;-69
2023/01/28 13:22:39;;;;;;;3.80;0.85;;;4.10;99.90;;;;;;5016845;28;20029;-69
2023/01/28 13:25:26;;;;;;;2.50;1.10;;;4.00;99.90;;;;;;5015832;28;20036;-69
2023/01/28 13:28:01;;;;;;;3.33;1.15;;;3.60;99.90;;;;;;5016453;28;20053;-69
2023/01/28 13:30:29;;;;;;;1.55;0.85;;;3.70;99.90;;;;;;5018476;28;20543;-68
2023/01/28 13:33:03;;;;;;;2.17;0.80;;;3.50;99.90;;;;;;5016653;28;20377;-68
2023/01/28 13:35:33;;;;;;;1.42;0.82;;;3.40;99.90;;;;;;5015145;28;20029;-69
2023/01/28 13:38:05;;;;;;;3.33;0.88;;;3.30;99.90;;;;;;5016886;28;20014;-69
2023/01/28 13:40:30;;;;;;;1.13;1.02;;;3.30;99.90;;;;;;5016290;28;20026;-68
2023/01/28 13:43:02;;;;;;;1.05;0.80;;;3.30;99.90;;;;;;5016294;28;20034;-68
2023/01/28 13:45:28;;;;;;;4.13;1.08;;;3.50;99.90;;;;;;5016811;28;20030;-68